Time;durP1;ratioP1;P1;durP2;ratioP2;P2;SDS_P1;SDS_P2;PMS_P1;PMS_P2;Temp;Humidity;BMP_temperature;BMP_pressure;BME280_temperature;BME280_humidity;BME280_pressure;Samples;Min_cycle;Max_cycle;Signal;HPM_P1;HPM_P2
2023/10/04 00:02:07;;;;;;;19.50;10.90;;;;;;;8.78;100.00;101608.25;105911;1257;59631;-74
2023/10/04 00:04:35;;;;;;;17.20;10.20;;;;;;;8.80;100.00;101609.92;105747;1254;73051;-73
2023/10/04 00:07:05;;;;;;;18.30;11.90;;;;;;;8.82;100.00;101608.46;105689;1257;63897;-74
2023/10/04 00:09:32;;;;;;;21.20;10.90;;;;;;;8.82;100.00;101609.31;105719;1256;72706;-73
2023/10/04 00:11:59;;;;;;;21.40;11.40;;;;;;;8.83;100.00;101608.75;105722;1257;61083;-76
2023/10/04 00:14:26;;;;;;;18.60;11.80;;;;;;;8.84;100.00;101607.84;105824;1254;60183;-75
2023/10/04 00:16:54;;;;;;;21.50;12.10;;;;;;;8.85;100.00;101608.70;105895;1257;72984;-72
2023/10/04 00:19:21;;;;;;;20.50;12.20;;;;;;;8.86;100.00;101609.52;105787;1256;62458;-73
2023/10/04 00:21:48;;;;;;;26.10;13.80;;;;;;;8.87;100.00;101610.71;105745;1254;71529;-74
2023/10/04 00:24:15;;;;;;;24.20;14.20;;;;;;;8.87;100.00;101608.42;105664;1260;61294;-75
2023/10/04 00:26:45;;;;;;;27.40;15.00;;;;;;;8.86;100.00;101606.73;105779;1255;60412;-73
2023/10/04 00:29:13;;;;;;;25.60;15.30;;;;;;;8.83;100.00;101606.86;105798;1254;73904;-74
2023/10/04 00:31:42;;;;;;;22.80;14.20;;;;;;;8.81;100.00;101605.35;105799;1260;63129;-73
2023/10/04 00:34:09;;;;;;;20.60;15.40;;;;;;;8.81;100.00;101605.34;105779;1254;72652;-75
2023/10/04 00:36:37;;;;;;;26.10;16.30;;;;;;;8.81;100.00;101609.89;105820;1254;60523;-76
2023/10/04 00:39:06;;;;;;;23.50;14.70;;;;;;;8.81;100.00;101608.67;105773;1253;60459;-76
2023/10/04 00:41:34;;;;;;;24.20;14.60;;;;;;;8.82;100.00;101607.59;105686;1260;72681;-74
2023/10/04 00:44:02;;;;;;;29.50;16.40;;;;;;;8.81;100.00;101608.30;106586;1253;62496;-70
2023/10/04 00:46:33;;;;;;;22.60;14.70;;;;;;;8.78;100.00;101604.92;106986;1257;71486;-71
2023/10/04 00:49:00;;;;;;;23.20;15.10;;;;;;;8.76;100.00;101603.97;105898;1258;60530;-74
2023/10/04 00:51:32;;;;;;;23.90;14.20;;;;;;;8.72;100.00;101604.45;105698;1253;60531;-76
2023/10/04 00:54:04;;;;;;;;;;;;;;;8.70;100.00;101603.84;105895;1253;73756;-73
2023/10/04 00:56:31;;;;;;;22.80;13.40;;;;;;;8.70;100.00;101606.11;105923;1257;63270;-75
2023/10/04 00:58:58;;;;;;;23.20;14.20;;;;;;;8.70;100.00;101605.58;105810;1254;72808;-75
2023/10/04 01:01:25;;;;;;;29.10;15.60;;;;;;;8.69;100.00;101601.25;105667;1261;61198;-75
2023/10/04 01:03:52;;;;;;;20.10;12.20;;;;;;;8.68;100.00;101600.21;105728;1257;60502;-74
2023/10/04 01:06:19;;;;;;;25.00;13.30;;;;;;;8.68;100.00;101609.11;105757;1255;73858;-76
2023/10/04 01:08:47;;;;;;;24.00;14.50;;;;;;;8.68;100.00;101605.83;105846;1257;63830;-73
2023/10/04 01:11:14;;;;;;;20.80;11.70;;;;;;;8.67;100.00;101604.11;105684;1254;71501;-75
2023/10/04 01:13:41;;;;;;;21.40;13.40;;;;;;;8.67;100.00;101596.95;105641;1257;61854;-74
2023/10/04 01:16:09;;;;;;;22.90;12.70;;;;;;;8.68;100.00;101600.43;105842;1253;60549;-75
2023/10/04 01:18:38;;;;;;;20.00;13.20;;;;;;;8.66;100.00;101597.69;105889;1256;75028;-75
2023/10/04 01:21:05;;;;;;;23.90;13.30;;;;;;;8.64;100.00;101592.00;105863;1254;62909;-77
2023/10/04 01:23:33;;;;;;;19.70;13.70;;;;;;;8.63;100.00;101593.63;105801;1252;71319;-74
2023/10/04 01:26:00;;;;;;;20.60;14.10;;;;;;;8.62;100.00;101592.27;105828;1256;60556;-76
2023/10/04 01:28:30;;;;;;;22.30;14.70;;;;;;;8.60;100.00;101588.31;105923;1254;60418;-75
2023/10/04 01:31:00;;;;;;;20.30;13.00;;;;;;;8.60;100.00;101585.54;106002;1257;72458;-76
2023/10/04 01:33:28;;;;;;;22.70;13.50;;;;;;;8.59;100.00;101581.20;105902;1257;65780;-75
2023/10/04 01:35:57;;;;;;;27.50;15.30;;;;;;;8.59;100.00;101577.39;105891;1257;72756;-77
2023/10/04 01:38:27;;;;;;;25.60;15.10;;;;;;;8.57;100.00;101573.61;105696;1257;61176;-75
2023/10/04 01:40:55;;;;;;;26.70;15.90;;;;;;;8.57;100.00;101574.67;105860;1257;60335;-74
2023/10/04 01:43:24;;;;;;;29.70;17.10;;;;;;;8.58;100.00;101568.70;105903;1256;74179;-74
2023/10/04 01:45:57;;;;;;;26.10;16.10;;;;;;;8.60;100.00;101568.27;105995;1253;62659;-76
2023/10/04 01:48:26;;;;;;;25.40;16.00;;;;;;;8.60;100.00;101565.30;105858;1254;71458;-76
2023/10/04 01:50:53;;;;;;;27.30;15.80;;;;;;;8.60;100.00;101567.05;106043;1257;60425;-74
2023/10/04 01:53:22;;;;;;;27.50;16.00;;;;;;;8.60;100.00;101563.91;105714;1252;60456;-75
2023/10/04 01:55:49;;;;;;;28.70;15.60;;;;;;;8.60;100.00;101559.54;105972;1254;73909;-78
2023/10/04 01:58:21;;;;;;;21.50;14.60;;;;;;;8.61;100.00;101561.09;105813;1256;64080;-77
2023/10/04 02:00:49;;;;;;;24.30;17.10;;;;;;;8.63;100.00;101562.25;106016;1254;72553;-76
2023/10/04 02:03:16;;;;;;;32.40;17.50;;;;;;;8.63;100.00;101554.39;105772;1265;60578;-75
2023/10/04 02:05:45;;;;;;;28.30;17.50;;;;;;;8.64;100.00;101554.02;105712;1254;60460;-75
2023/10/04 02:08:15;;;;;;;26.40;16.20;;;;;;;8.65;100.00;101553.83;105887;1254;73945;-76
2023/10/04 02:10:44;;;;;;;33.90;16.30;;;;;;;8.65;100.00;101552.43;105796;1256;64018;-73
2023/10/04 02:13:17;;;;;;;29.80;17.10;;;;;;;8.65;100.00;101548.94;105844;1257;70214;-73
2023/10/04 02:15:48;;;;;;;27.70;16.60;;;;;;;8.65;100.00;101546.66;105829;1257;62137;-74
2023/10/04 02:18:15;;;;;;;24.50;17.60;;;;;;;8.64;100.00;101541.79;105954;1254;60347;-74
2023/10/04 02:20:45;;;;;;;32.90;17.30;;;;;;;8.64;100.00;101542.48;105858;1254;72615;-74
2023/10/04 02:23:12;;;;;;;25.80;17.10;;;;;;;8.63;100.00;101540.09;105894;1257;62539;-73
2023/10/04 02:25:39;;;;;;;30.50;17.20;;;;;;;8.63;100.00;101534.19;105896;1258;72551;-74
2023/10/04 02:28:11;;;;;;;29.90;17.50;;;;;;;8.63;100.00;101534.00;105867;1256;61244;-75
2023/10/04 02:30:38;;;;;;;25.50;16.10;;;;;;;8.64;100.00;101537.98;105816;1254;60457;-75
2023/10/04 02:33:09;;;;;;;28.90;17.40;;;;;;;8.65;100.00;101540.75;105735;1257;73905;-74
2023/10/04 02:35:43;;;;;;;32.60;18.30;;;;;;;8.67;100.00;101541.88;105835;1254;62725;-76
2023/10/04 02:38:19;;;;;;;29.90;17.80;;;;;;;8.68;100.00;101540.96;105641;1258;72742;-76
2023/10/04 02:40:48;;;;;;;27.10;15.20;;;;;;;8.69;100.00;101536.20;105677;1257;60951;-75
2023/10/04 02:43:15;;;;;;;27.80;15.00;;;;;;;8.70;100.00;101531.98;105942;1257;60505;-74
2023/10/04 02:45:43;;;;;;;27.40;15.40;;;;;;;8.71;100.00;101530.89;105754;1254;73862;-75
2023/10/04 02:48:10;;;;;;;26.50;16.90;;;;;;;8.73;100.00;101529.98;105713;1257;63938;-75
2023/10/04 02:50:41;;;;;;;34.20;16.30;;;;;;;8.73;100.00;101529.26;105896;1254;72568;-75
2023/10/04 02:53:09;;;;;;;36.10;18.70;;;;;;;8.74;100.00;101526.80;105916;1256;61111;-74
2023/10/04 02:55:36;;;;;;;40.10;20.90;;;;;;;8.75;100.00;101525.70;105826;1256;60415;-75
2023/10/04 02:58:06;;;;;;;46.10;20.40;;;;;;;8.80;100.00;101524.66;105585;1253;73786;-73
2023/10/04 03:00:42;;;;;;;44.50;24.70;;;;;;;8.85;100.00;101519.91;105756;1257;63903;-73
2023/10/04 03:03:11;;;;;;;48.50;26.70;;;;;;;8.94;100.00;101522.55;105837;1254;72685;-74
2023/10/04 03:05:40;;;;;;;52.70;28.00;;;;;;;9.01;100.00;101521.21;105862;1256;61297;-75
2023/10/04 03:08:08;;;;;;;57.30;27.60;;;;;;;9.08;100.00;101524.44;105860;1255;60601;-74
2023/10/04 03:10:37;;;;;;;52.90;26.00;;;;;;;9.15;100.00;101522.27;105911;1256;73708;-74
2023/10/04 03:13:19;;;;;;;54.80;25.10;;;;;;;9.22;100.00;101524.59;105867;1256;63938;-75
2023/10/04 03:15:47;;;;;;;39.20;22.70;;;;;;;9.29;100.00;101523.95;105837;1257;72799;-75
2023/10/04 03:18:17;;;;;;;39.90;20.10;;;;;;;9.36;100.00;101531.20;105891;1254;60456;-75
2023/10/04 03:21:33;;;;;;;34.50;21.10;;;;;;;9.43;100.00;101529.70;105837;1257;60418;-75
2023/10/04 03:23:40;;;;;;;36.90;18.60;;;;;;;9.49;100.00;101529.27;105764;1257;73947;-76
2023/10/04 03:26:18;;;;;;;35.50;17.00;;;;;;;9.55;100.00;101527.09;105886;1256;63930;-76
2023/10/04 03:28:48;;;;;;;27.80;15.90;;;;;;;9.60;100.00;101531.80;105885;1254;72642;-74
2023/10/04 03:31:20;;;;;;;37.20;16.90;;;;;;;9.63;100.00;101535.14;105973;1254;62047;-76
2023/10/04 03:33:50;;;;;;;29.00;17.00;;;;;;;9.66;100.00;101535.38;106023;1254;60619;-77
2023/10/04 03:36:21;;;;;;;31.50;15.20;;;;;;;9.69;100.00;101534.56;106610;1254;73882;-76
2023/10/04 03:38:54;;;;;;;26.70;14.40;;;;;;;9.72;100.00;101540.88;107098;1256;63883;-74
2023/10/04 03:41:20;;;;;;;27.10;15.90;;;;;;;9.75;100.00;101539.90;107391;1253;72615;-75
2023/10/04 03:43:49;;;;;;;40.70;17.00;;;;;;;9.77;100.00;101543.48;106569;1257;60893;-75
2023/10/04 03:46:19;;;;;;;34.30;17.30;;;;;;;9.79;100.00;101549.33;105840;1256;60326;-76
2023/10/04 03:48:51;;;;;;;36.50;20.30;;;;;;;9.80;100.00;101545.45;105877;1254;72291;-77
2023/10/04 03:51:22;;;;;;;33.40;19.80;;;;;;;9.81;100.00;101546.98;105810;1256;62698;-75
2023/10/04 03:53:51;;;;;;;36.40;20.50;;;;;;;9.82;100.00;101547.81;105766;1254;70634;-76
2023/10/04 03:56:18;;;;;;;48.60;22.30;;;;;;;9.83;100.00;101547.61;106052;1254;61951;-77
2023/10/04 03:58:45;;;;;;;34.90;21.60;;;;;;;9.84;100.00;101549.83;105836;1253;61203;-76
2023/10/04 04:01:14;;;;;;;36.60;20.30;;;;;;;9.86;100.00;101550.10;105832;1257;73839;-74
2023/10/04 04:03:41;;;;;;;38.40;18.90;;;;;;;9.87;100.00;101549.72;105865;1257;64005;-76
2023/10/04 04:06:08;;;;;;;33.80;17.60;;;;;;;9.89;100.00;101548.05;105677;1257;72650;-77
2023/10/04 04:08:37;;;;;;;32.50;18.30;;;;;;;9.91;100.00;101552.66;105863;1256;61900;-76
2023/10/04 04:11:06;;;;;;;31.50;17.90;;;;;;;9.94;100.00;101551.66;105961;1253;60892;-76
2023/10/04 04:13:35;;;;;;;26.60;15.30;;;;;;;9.97;100.00;101551.53;106029;1252;73810;-74
2023/10/04 04:16:09;;;;;;;31.00;14.40;;;;;;;10.02;100.00;101554.48;105847;1257;63893;-77
2023/10/04 04:18:40;;;;;;;28.40;14.80;;;;;;;10.06;100.00;101551.32;105985;1254;72585;-76
2023/10/04 04:21:07;;;;;;;24.30;13.10;;;;;;;10.11;100.00;101553.20;105829;1254;60460;-76
2023/10/04 04:23:35;;;;;;;26.90;12.10;;;;;;;10.17;100.00;101549.98;105838;1253;60355;-75
2023/10/04 04:26:05;;;;;;;23.00;12.30;;;;;;;10.23;100.00;101548.31;105746;1254;74847;-74
2023/10/04 04:28:36;;;;;;;23.80;10.70;;;;;;;10.30;100.00;101550.15;105942;1256;63963;-74
2023/10/04 04:31:14;;;;;;;19.80;11.30;;;;;;;10.38;100.00;101550.14;105908;1254;72688;-75
2023/10/04 04:33:42;;;;;;;18.90;10.00;;;;;;;10.45;100.00;101545.46;105979;1256;61987;-78
2023/10/04 04:36:21;;;;;;;21.60;11.10;;;;;;;10.55;100.00;101544.33;105974;1256;60450;-77
2023/10/04 04:38:48;;;;;;;22.30;11.90;;;;;;;10.64;100.00;101547.78;105943;1257;72584;-78
2023/10/04 04:41:21;;;;;;;23.80;11.20;;;;;;;10.73;100.00;101548.95;105952;1256;63967;-76
2023/10/04 04:43:49;;;;;;;26.70;11.50;;;;;;;10.83;100.00;101544.45;105791;1257;72486;-76
2023/10/04 04:46:18;;;;;;;22.80;10.60;;;;;;;10.94;100.00;101547.10;105778;1256;62127;-76
2023/10/04 04:48:47;;;;;;;25.00;11.60;;;;;;;11.06;100.00;101550.57;105771;1252;60463;-77
2023/10/04 04:51:18;;;;;;;26.70;10.90;;;;;;;11.21;100.00;101544.23;105719;1255;73864;-77
2023/10/04 04:53:48;;;;;;;21.30;10.90;;;;;;;11.35;100.00;101545.49;105826;1254;62573;-77
2023/10/04 04:56:18;;;;;;;23.20;9.80;;;;;;;11.47;100.00;101544.58;105722;1256;72518;-77
2023/10/04 04:58:48;;;;;;;23.10;11.50;;;;;;;11.61;100.00;101547.05;105627;1256;62768;-77
2023/10/04 05:01:15;;;;;;;21.20;11.10;;;;;;;11.75;100.00;101546.90;105677;1254;60457;-77
2023/10/04 05:03:46;;;;;;;27.60;10.70;;;;;;;11.87;100.00;101546.45;105756;1256;74328;-75
2023/10/04 05:06:16;;;;;;;25.80;10.90;;;;;;;11.96;100.00;101543.72;105875;1252;63871;-78
2023/10/04 05:08:44;;;;;;;21.60;11.30;;;;;;;12.05;100.00;101549.22;105686;1254;72635;-76
2023/10/04 05:11:11;;;;;;;25.40;12.20;;;;;;;12.18;100.00;101550.49;105828;1256;60928;-75
2023/10/04 05:13:39;;;;;;;24.50;11.20;;;;;;;12.34;100.00;101547.23;105802;1256;60438;-77
2023/10/04 05:16:07;;;;;;;23.50;10.80;;;;;;;12.45;100.00;101554.18;106268;1252;73877;-78
2023/10/04 05:18:37;;;;;;;20.90;10.20;;;;;;;12.54;100.00;101551.96;105778;1256;63964;-74
2023/10/04 05:21:05;;;;;;;18.40;9.70;;;;;;;12.61;100.00;101547.17;105975;1254;72763;-76
2023/10/04 05:23:32;;;;;;;14.90;8.80;;;;;;;12.69;100.00;101545.35;105747;1254;61949;-77
2023/10/04 05:26:02;;;;;;;15.20;8.50;;;;;;;12.79;100.00;101544.81;105807;1254;60459;-76
2023/10/04 05:28:29;;;;;;;20.70;10.00;;;;;;;12.94;100.00;101543.81;105613;1254;73795;-76
2023/10/04 05:30:57;;;;;;;17.90;9.60;;;;;;;13.15;100.00;101537.02;105790;1256;63661;-76
2023/10/04 05:33:24;;;;;;;16.50;8.00;;;;;;;13.40;100.00;101539.33;105866;1254;72625;-76
2023/10/04 05:35:55;;;;;;;24.10;9.00;;;;;;;13.68;100.00;101539.13;105655;1256;62019;-75
2023/10/04 05:38:23;;;;;;;16.60;9.20;;;;;;;14.19;100.00;101546.49;105723;1254;60450;-75
2023/10/04 05:40:51;;;;;;;22.50;10.60;;;;;;;14.91;100.00;101548.05;105797;1256;73918;-77
2023/10/04 05:43:18;;;;;;;21.30;10.20;;;;;;;15.72;100.00;101547.90;105715;1257;64986;-77
2023/10/04 05:45:48;;;;;;;19.70;9.20;;;;;;;16.53;100.00;101547.34;105816;1254;70461;-77
2023/10/04 05:48:19;;;;;;;18.80;10.00;;;;;;;17.34;95.59;101546.31;105774;1253;60539;-75
2023/10/04 05:50:49;;;;;;;17.60;9.30;;;;;;;18.07;86.77;101549.16;105876;1254;60546;-76
2023/10/04 05:53:19;;;;;;;23.30;9.80;;;;;;;18.73;77.73;101549.68;105924;1253;73870;-77
2023/10/04 05:55:48;;;;;;;22.30;11.50;;;;;;;19.35;70.52;101550.55;105810;1254;62595;-77
2023/10/04 05:58:16;;;;;;;19.20;11.60;;;;;;;19.88;63.22;101552.02;105775;1254;72837;-77
2023/10/04 06:00:51;;;;;;;22.10;11.70;;;;;;;20.37;59.70;101547.64;105966;1256;60572;-76
2023/10/04 06:03:18;;;;;;;20.50;11.90;;;;;;;20.90;55.31;101545.88;105811;1256;60361;-78
2023/10/04 06:05:45;;;;;;;16.10;10.40;;;;;;;21.38;53.27;101543.72;105840;1254;73881;-78
2023/10/04 06:08:18;;;;;;;21.10;11.00;;;;;;;21.92;50.15;101546.29;105854;1256;64271;-75
2023/10/04 06:10:51;;;;;;;19.70;11.20;;;;;;;22.43;48.24;101548.19;105939;1252;72768;-75
2023/10/04 06:13:22;;;;;;;18.70;10.70;;;;;;;22.92;46.74;101549.05;105876;1254;60549;-78
2023/10/04 06:15:53;;;;;;;18.70;10.80;;;;;;;23.43;46.23;101551.37;105845;1253;60441;-78
2023/10/04 06:18:22;;;;;;;19.90;11.10;;;;;;;23.87;44.53;101551.05;105827;1256;73915;-75
2023/10/04 06:20:49;;;;;;;20.60;12.20;;;;;;;24.28;42.51;101550.08;105869;1253;62744;-75
2023/10/04 06:23:17;;;;;;;18.80;11.30;;;;;;;24.68;41.20;101550.89;105812;1256;72717;-74
2023/10/04 06:25:48;;;;;;;20.10;10.70;;;;;;;25.07;39.81;101555.77;105766;1253;60460;-76
2023/10/04 06:28:15;;;;;;;17.70;10.20;;;;;;;25.45;38.43;101554.91;105895;1254;60460;-77
2023/10/04 06:30:42;;;;;;;18.00;10.80;;;;;;;25.81;37.43;101552.02;105852;1254;73859;-77
2023/10/04 06:33:10;;;;;;;19.20;10.30;;;;;;;26.14;36.07;101551.30;106421;1252;62656;-77
2023/10/04 06:35:38;;;;;;;20.40;10.10;;;;;;;26.34;35.54;101553.86;106705;1257;73019;-72
2023/10/04 06:38:07;;;;;;;21.80;10.60;;;;;;;26.60;34.70;101548.11;106464;1253;60578;-75
2023/10/04 06:40:34;;;;;;;17.50;9.70;;;;;;;26.80;33.83;101542.36;105742;1257;60421;-76
2023/10/04 06:43:06;;;;;;;18.00;10.20;;;;;;;26.99;33.59;101543.24;105912;1254;72256;-76
2023/10/04 06:45:34;;;;;;;18.00;10.00;;;;;;;27.23;33.06;101542.33;106017;1253;62631;-76
2023/10/04 06:48:01;;;;;;;18.50;10.70;;;;;;;27.41;32.71;101541.98;105775;1253;72676;-78
2023/10/04 06:50:32;;;;;;;14.70;10.50;;;;;;;27.63;32.33;101538.89;105930;1256;60444;-76
2023/10/04 06:53:01;;;;;;;16.90;11.10;;;;;;;27.86;32.06;101541.35;105749;1256;60437;-76
2023/10/04 06:55:30;;;;;;;17.00;10.70;;;;;;;28.01;31.62;101541.02;105825;1254;74057;-76
2023/10/04 06:57:57;;;;;;;15.00;9.70;;;;;;;28.24;31.47;101540.23;105766;1256;63777;-76
2023/10/04 07:00:31;;;;;;;17.70;9.90;;;;;;;28.52;30.79;101541.19;105873;1256;71461;-75
2023/10/04 07:03:01;;;;;;;20.50;9.40;;;;;;;28.66;30.58;101542.54;105942;1256;60546;-76
2023/10/04 07:05:32;;;;;;;16.50;10.50;;;;;;;28.80;30.38;101537.95;105790;1256;60431;-75
2023/10/04 07:07:59;;;;;;;19.60;10.40;;;;;;;28.98;30.10;101539.38;105801;1254;71682;-77
2023/10/04 07:10:27;;;;;;;16.40;9.90;;;;;;;29.23;29.63;101542.50;105791;1256;63840;-75
2023/10/04 07:12:56;;;;;;;16.40;10.00;;;;;;;29.45;29.49;101538.77;105964;1256;72528;-78
2023/10/04 07:15:24;;;;;;;19.10;11.40;;;;;;;29.67;29.18;101540.11;105912;1253;60782;-75
2023/10/04 07:17:51;;;;;;;18.30;11.20;;;;;;;29.92;28.87;101535.48;105877;1254;60472;-78
2023/10/04 07:20:18;;;;;;;18.70;10.30;;;;;;;30.16;28.47;101535.89;105926;1256;73831;-75
2023/10/04 07:22:58;;;;;;;16.70;10.10;;;;;;;30.27;28.14;101537.67;105988;1256;63932;-75
2023/10/04 07:25:26;;;;;;;15.20;9.60;;;;;;;30.45;28.08;101539.31;105799;1256;72030;-76
2023/10/04 07:27:54;;;;;;;15.60;9.30;;;;;;;30.68;27.83;101541.58;105783;1255;60431;-77
2023/10/04 07:30:22;;;;;;;14.60;9.00;;;;;;;30.94;27.35;101543.90;105837;1256;60871;-77
2023/10/04 07:32:51;;;;;;;15.50;9.40;;;;;;;31.14;27.09;101545.36;105949;1256;73715;-78
2023/10/04 07:35:20;;;;;;;15.50;10.10;;;;;;;31.24;26.63;101542.05;105691;1257;65115;-77
2023/10/04 07:37:47;;;;;;;13.90;9.90;;;;;;;31.17;26.55;101537.23;105824;1253;71248;-77
2023/10/04 07:40:16;;;;;;;12.30;9.30;;;;;;;31.13;26.67;101536.27;105857;1256;60883;-74
2023/10/04 07:42:47;;;;;;;17.50;9.40;;;;;;;31.30;26.39;101535.70;105882;1254;60545;-75
2023/10/04 07:45:14;;;;;;;22.60;10.00;;;;;;;31.52;26.31;101530.20;105906;1251;74664;-74
2023/10/04 07:47:41;;;;;;;14.40;9.10;;;;;;;31.66;26.15;101530.85;105807;1252;63934;-79
2023/10/04 07:50:15;;;;;;;14.60;9.70;;;;;;;31.79;26.03;101530.30;105846;1254;72419;-78
2023/10/04 07:52:43;;;;;;;18.50;9.10;;;;;;;31.91;25.84;101527.06;105872;1252;61411;-79
2023/10/04 07:55:14;;;;;;;13.00;8.90;;;;;;;32.05;25.58;101526.07;105823;1253;60415;-75
2023/10/04 07:57:44;;;;;;;20.70;10.80;;;;;;;32.26;25.28;101523.49;105816;1256;73149;-74
2023/10/04 08:00:14;;;;;;;12.50;8.70;;;;;;;32.38;25.19;101520.70;105831;1254;63789;-76
2023/10/04 08:02:46;;;;;;;15.70;9.60;;;;;;;32.47;25.22;101520.00;105804;1254;72166;-77
2023/10/04 08:05:18;;;;;;;15.10;9.30;;;;;;;32.59;25.02;101517.59;105814;1255;60562;-76
2023/10/04 08:07:57;;;;;;;16.50;8.90;;;;;;;32.65;24.95;101516.30;105817;1256;60436;-76
2023/10/04 08:10:31;;;;;;;17.50;8.80;;;;;;;32.71;24.90;101514.40;105812;1253;74784;-73
2023/10/04 08:13:02;;;;;;;15.70;8.60;;;;;;;32.73;24.55;101508.62;105790;1253;62837;-73
2023/10/04 08:15:30;;;;;;;19.10;8.90;;;;;;;32.66;24.52;101510.00;105912;1254;72968;-80
2023/10/04 08:17:58;;;;;;;17.40;10.00;;;;;;;32.61;24.86;101506.14;105929;1256;60427;-76
2023/10/04 08:20:29;;;;;;;15.30;9.70;;;;;;;32.69;24.69;101502.58;105804;1254;61453;-74
2023/10/04 08:22:57;;;;;;;12.90;9.20;;;;;;;32.77;24.42;101503.23;105898;1253;73977;-79
2023/10/04 08:25:24;;;;;;;23.20;9.40;;;;;;;32.79;24.63;101498.72;105822;1254;63152;-75
2023/10/04 08:27:52;;;;;;;19.80;9.10;;;;;;;32.73;24.58;101500.97;105722;1255;252878;-75
2023/10/04 08:32:27;;;;;;;17.60;8.60;;;;;;;32.77;24.50;101494.26;102498;1295;604099;-76
2023/10/04 08:34:54;;;;;;;15.50;9.20;;;;;;;32.86;24.58;101487.27;104858;1267;59244;-73
2023/10/04 08:37:21;;;;;;;14.40;8.50;;;;;;;32.83;24.47;101487.57;104864;1269;60293;-75
2023/10/04 08:39:48;;;;;;;16.60;8.80;;;;;;;32.84;24.09;101484.35;104872;1269;71070;-78
2023/10/04 08:42:15;;;;;;;15.60;8.30;;;;;;;32.86;24.20;101480.07;104864;1270;64140;-76
2023/10/04 08:44:41;;;;;;;19.90;8.30;;;;;;;32.97;24.05;101481.33;105462;1259;223185;-76
2023/10/04 08:47:09;;;;;;;15.90;8.00;;;;;;;33.03;23.77;101475.27;105863;1254;60362;-78
2023/10/04 08:49:45;;;;;;;17.50;7.90;;;;;;;32.99;23.29;101473.45;105760;1257;59748;-76
2023/10/04 08:52:17;;;;;;;17.10;7.90;;;;;;;32.89;23.40;101470.35;105789;1256;72449;-77
2023/10/04 08:54:47;;;;;;;14.00;9.40;;;;;;;32.81;23.47;101469.52;105841;1257;63017;-76
2023/10/04 08:57:19;;;;;;;23.60;13.00;;;;;;;32.75;23.63;101464.88;105862;1257;71819;-75
2023/10/04 08:59:47;;;;;;;21.10;10.40;;;;;;;32.74;23.50;101462.14;105900;1256;59801;-76
2023/10/04 09:02:14;;;;;;;16.80;8.60;;;;;;;32.46;23.66;101459.94;105814;1258;59843;-74
2023/10/04 09:04:42;;;;;;;15.40;8.30;;;;;;;32.20;24.10;101452.65;105843;1253;72747;-75
2023/10/04 09:07:09;;;;;;;14.70;8.40;;;;;;;32.25;24.28;101449.79;105936;1256;63571;-74
2023/10/04 09:09:40;;;;;;;11.10;6.90;;;;;;;32.40;24.09;101444.25;105781;1255;72902;-77
2023/10/04 09:12:10;;;;;;;20.40;8.80;;;;;;;32.55;24.08;101448.23;105850;1256;59698;-77
2023/10/04 09:14:37;;;;;;;18.40;8.60;;;;;;;32.60;23.96;101446.75;105792;1256;59611;-78
2023/10/04 09:17:07;;;;;;;24.30;10.50;;;;;;;32.58;23.97;101441.54;105874;1255;72082;-75
2023/10/04 09:19:34;;;;;;;14.00;9.60;;;;;;;32.66;23.77;101437.91;105931;1256;65055;-76
2023/10/04 09:22:05;;;;;;;19.30;11.00;;;;;;;32.79;23.66;101436.02;105914;1252;71770;-78
2023/10/04 09:24:53;;;;;;;21.90;11.10;;;;;;;33.00;23.00;101431.27;106022;1253;59618;-74
2023/10/04 09:27:21;;;;;;;25.60;11.60;;;;;;;32.99;22.45;101428.59;106325;1256;60219;-72
2023/10/04 09:29:49;;;;;;;16.40;11.00;;;;;;;32.81;22.68;101423.63;106612;1256;72470;-72
2023/10/04 09:32:16;;;;;;;15.80;11.50;;;;;;;32.63;23.13;101418.74;105945;1264;64555;-73
2023/10/04 09:34:57;;;;;;;18.60;11.60;;;;;;;32.58;23.37;101415.30;105815;1253;71573;-74
2023/10/04 09:37:27;;;;;;;16.30;11.70;;;;;;;32.80;23.40;101413.89;105861;1256;60454;-76
2023/10/04 09:40:07;;;;;;;18.70;10.50;;;;;;;32.94;23.20;101410.52;105995;1256;60022;-74
2023/10/04 09:42:53;;;;;;;15.40;10.20;;;;;;;32.97;22.88;101407.82;105793;1256;73066;-72
2023/10/04 09:45:20;;;;;;;17.20;9.80;;;;;;;32.99;22.82;101400.45;105818;1255;61874;-74
2023/10/04 09:47:51;;;;;;;18.60;11.20;;;;;;;33.01;22.22;101399.85;105826;1255;71640;-72
2023/10/04 09:50:23;;;;;;;15.90;10.00;;;;;;;32.95;22.19;101395.41;105860;1256;60235;-75
2023/10/04 09:52:50;;;;;;;22.40;9.90;;;;;;;32.89;22.64;101391.72;105736;1257;60137;-74
2023/10/04 09:55:17;;;;;;;16.60;9.60;;;;;;;32.86;22.64;101392.50;105824;1255;72397;-75
2023/10/04 09:57:46;;;;;;;16.00;9.70;;;;;;;32.84;22.87;101382.27;105815;1251;62682;-72
2023/10/04 10:00:22;;;;;;;22.80;10.70;;;;;;;32.85;22.88;101384.05;105721;1256;72385;-73
2023/10/04 10:02:53;;;;;;;16.30;10.80;;;;;;;32.78;22.88;101375.59;105780;1266;60620;-75
2023/10/04 10:05:27;;;;;;;16.70;10.70;;;;;;;32.87;22.79;101368.20;105799;1251;60550;-75
2023/10/04 10:07:54;;;;;;;15.80;11.50;;;;;;;32.89;22.35;101364.79;105841;1254;71212;-75
2023/10/04 10:10:24;;;;;;;14.30;10.30;;;;;;;32.91;22.63;101362.02;105959;1255;65121;-75
2023/10/04 10:12:51;;;;;;;16.00;11.30;;;;;;;32.99;22.53;101360.11;105862;1255;72772;-76
2023/10/04 10:15:18;;;;;;;17.30;11.30;;;;;;;33.07;22.65;101357.75;105757;1255;59667;-77
2023/10/04 10:17:46;;;;;;;18.90;11.30;;;;;;;33.12;22.34;101351.89;105852;1256;59583;-75
2023/10/04 10:20:15;;;;;;;20.50;11.50;;;;;;;33.04;22.39;101348.04;105778;1251;73319;-76
2023/10/04 10:22:58;;;;;;;18.90;11.20;;;;;;;32.92;22.71;101341.98;105817;1257;64191;-78
2023/10/04 10:25:29;;;;;;;22.90;11.00;;;;;;;32.98;22.72;101339.45;105810;1256;71719;-75
2023/10/04 10:27:57;;;;;;;17.80;11.60;;;;;;;32.99;22.43;101338.35;105836;1255;59619;-75
2023/10/04 10:30:30;;;;;;;24.00;11.80;;;;;;;32.98;22.29;101334.20;105970;1256;59744;-76
2023/10/04 10:33:00;;;;;;;18.90;11.20;;;;;;;32.62;22.96;101339.14;105872;1257;72435;-75
2023/10/04 10:35:46;;;;;;;20.90;11.60;;;;;;;32.41;23.25;101329.07;105979;1254;62881;-77
2023/10/04 10:38:41;;;;;;;17.90;11.70;;;;;;;32.47;23.43;101326.36;105934;1255;73449;-77
2023/10/04 10:41:10;;;;;;;16.20;11.20;;;;;;;32.55;22.85;101318.34;105763;1256;59829;-78
2023/10/04 10:44:13;;;;;;;26.60;12.40;;;;;;;32.43;23.05;101317.57;105769;1256;60018;-75
2023/10/04 10:47:08;;;;;;;23.50;13.10;;;;;;;32.29;23.33;101315.83;105735;1255;71209;-76
2023/10/04 10:49:57;;;;;;;19.40;11.70;;;;;;;32.28;23.38;101310.79;105802;1252;63366;-77
2023/10/04 10:52:46;;;;;;;19.40;14.00;;;;;;;32.26;23.32;101312.52;105876;1251;71784;-75
2023/10/04 10:55:19;;;;;;;20.00;10.60;;;;;;;32.27;23.29;101311.09;105842;1256;59829;-76
2023/10/04 10:57:50;;;;;;;21.40;10.80;;;;;;;32.21;23.17;101312.04;105792;1251;61445;-78
2023/10/04 11:02:44;;;;;;;19.50;10.60;;;;;;;31.94;23.32;101312.73;105834;1253;62876;-74
2023/10/04 11:05:12;;;;;;;26.50;10.30;;;;;;;31.70;23.28;101311.91;105962;1255;72731;-75
2023/10/04 11:07:39;;;;;;;17.80;9.80;;;;;;;31.46;23.64;101314.29;105920;1252;61581;-78
2023/10/04 11:10:06;;;;;;;17.00;9.50;;;;;;;31.12;23.75;101312.28;105827;1256;61666;-76
2023/10/04 11:12:37;;;;;;;15.80;8.90;;;;;;;30.80;24.11;101307.61;105705;1251;74097;-75
2023/10/04 11:15:08;;;;;;;15.00;9.70;;;;;;;30.52;24.16;101303.31;105773;1255;64939;-75
2023/10/04 11:17:36;;;;;;;18.60;10.90;;;;;;;30.31;24.65;101298.17;105751;1265;72793;-76
2023/10/04 11:20:10;;;;;;;16.80;10.40;;;;;;;30.15;25.10;101295.78;105943;1256;60530;-77